^^
Station Historical Data
Daily Summary for February 19, 2018 Units:  Both    English   Metric
« Previous Day
Next Day »
Daily Weekly Monthly Yearly Custom
  High: Low: Average:
Temperature: TemperatureF °F /  -17.8 °C 56.1 °F /  13.4 °C 74.6 °F /  23.7 °C
Dew Point: DewpointF °F /  -17.8 °C 20.8 °F /  -6.2 °C 30.5 °F /  -0.8 °C
Humidity: Humidity% 11% 22%
Wind Speed: WindSpeedMPHmph /  0km/h - 1.4mph /  2.3km/h
Wind Gust: WindSpeedGustMPHmph /  0km/h - -
Wind- - SSW
Pressure: PressureIn in /  0 hPa 29.65 in /  1003.9 hPa -
Precipitation: 0.00 in /  0 mm    
Historical Graphs
 
 
Tabular Data for February 19, 2018
Time Temperature Dew Point Pressure Wind Wind Speed Wind Gust Humidity Rainfall Rate (Hourly) solar Conditions
TemperatureF °F /  -17.8 °C DewpointF °F /  -17.8 °C PressureInin /  0hPa Calm     Humidity% HourlyPrecipInin /  0mm SolarRadiationWatts/m^2 W/m2 Conditions
00:00 66.2 °F /  19 °C 33.1 °F /  0.6 °C 29.74in /  1007hPa Calm     29% 0.00in /  0mm 0.0 W/m2
00:05 65.8 °F /  18.8 °C 32.7 °F /  0.4 °C 29.74in /  1007hPa Calm     29% 0.00in /  0mm 0.0 W/m2
00:11 65.7 °F /  18.7 °C 32.5 °F /  0.3 °C 29.74in /  1007hPa Calm     29% 0.00in /  0mm 0.0 W/m2
00:16 65.3 °F /  18.5 °C 33.8 °F /  1 °C 29.74in /  1007hPa Calm     31% 0.00in /  0mm 0.0 W/m2
00:21 65.1 °F /  18.4 °C 33.8 °F /  1 °C 29.74in /  1007hPa Calm     31% 0.00in /  0mm 0.0 W/m2
00:27 64.8 °F /  18.2 °C 33.4 °F /  0.8 °C 29.74in /  1007hPa Calm     31% 0.00in /  0mm 0.0 W/m2
00:32 64.8 °F /  18.2 °C 33.4 °F /  0.8 °C 29.74in /  1007hPa Calm     31% 0.00in /  0mm 0.0 W/m2
00:37 64.4 °F /  18 °C 34.7 °F /  1.5 °C 29.74in /  1007hPa Calm     33% 0.00in /  0mm 0.0 W/m2
00:43 64.0 °F /  17.8 °C 32.7 °F /  0.4 °C 29.74in /  1007hPa Calm   2.0mph /  3.2km/h 31% 0.00in /  0mm 0.0 W/m2
00:48 63.7 °F /  17.6 °C 33.3 °F /  0.7 °C 29.74in /  1007hPa Calm   3.0mph /  4.8km/h 32% 0.00in /  0mm 0.0 W/m2
00:53 63.3 °F /  17.4 °C 32.9 °F /  0.5 °C 29.74in /  1007hPa Calm   1.0mph /  1.6km/h 32% 0.00in /  0mm 0.0 W/m2
00:59 63.1 °F /  17.3 °C 34.3 °F /  1.3 °C 29.74in /  1007hPa Calm     34% 0.00in /  0mm 0.0 W/m2
01:04 63.0 °F /  17.2 °C 34.9 °F /  1.6 °C 29.74in /  1007hPa Calm     35% 0.00in /  0mm 0.0 W/m2
01:09 62.6 °F /  17 °C 36.0 °F /  2.2 °C 29.74in /  1007hPa Calm     37% 0.00in /  0mm 0.0 W/m2
01:15 62.2 °F /  16.8 °C 34.2 °F /  1.2 °C 29.74in /  1007hPa Calm   1.0mph /  1.6km/h 35% 0.00in /  0mm 0.0 W/m2
01:20 62.1 °F /  16.7 °C 34.9 °F /  1.6 °C 29.74in /  1007hPa Calm     36% 0.00in /  0mm 0.0 W/m2
01:25 61.7 °F /  16.5 °C 35.8 °F /  2.1 °C 29.74in /  1007hPa Calm     38% 0.00in /  0mm 0.0 W/m2
01:31 61.3 °F /  16.3 °C 35.6 °F /  2 °C 29.74in /  1007hPa Calm     38% 0.00in /  0mm 0.0 W/m2
01:36 61.2 °F /  16.2 °C 34.0 °F /  1.1 °C 29.74in /  1007hPa Calm   1.0mph /  1.6km/h 36% 0.00in /  0mm 0.0 W/m2
01:41 61.0 °F /  16.1 °C 33.8 °F /  1 °C 29.74in /  1007hPa Calm   1.0mph /  1.6km/h 36% 0.00in /  0mm 0.0 W/m2
01:46 61.0 °F /  16.1 °C 33.8 °F /  1 °C 29.74in /  1007hPa Calm     36% 0.00in /  0mm 0.0 W/m2
01:51 60.8 °F /  16 °C 34.3 °F /  1.3 °C 29.74in /  1007hPa Calm   1.0mph /  1.6km/h 37% 0.00in /  0mm 0.0 W/m2
01:56 60.6 °F /  15.9 °C 34.9 °F /  1.6 °C 29.74in /  1007hPa Calm   2.0mph /  3.2km/h 38% 0.00in /  0mm 0.0 W/m2
02:02 60.6 °F /  15.9 °C 33.4 °F /  0.8 °C 29.74in /  1007hPa Calm     36% 0.00in /  0mm 0.0 W/m2
02:08 60.4 °F /  15.8 °C 34.0 °F /  1.1 °C 29.73in /  1006.7hPa Calm   1.0mph /  1.6km/h 37% 0.00in /  0mm 0.0 W/m2
02:13 60.4 °F /  15.8 °C 34.0 °F /  1.1 °C 29.73in /  1006.7hPa ESE 0.9mph /  1.4km/h 1.0mph /  1.6km/h 37% 0.00in /  0mm 0.0 W/m2
02:18 60.4 °F /  15.8 °C 33.4 °F /  0.8 °C 29.73in /  1006.7hPa Calm   3.0mph /  4.8km/h 36% 0.00in /  0mm 0.0 W/m2
02:23 60.3 °F /  15.7 °C 33.3 °F /  0.7 °C 29.73in /  1006.7hPa Calm     36% 0.00in /  0mm 0.0 W/m2
02:28 60.3 °F /  15.7 °C 33.8 °F /  1 °C 29.73in /  1006.7hPa Calm   1.0mph /  1.6km/h 37% 0.00in /  0mm 0.0 W/m2
02:33 60.1 °F /  15.6 °C 33.8 °F /  1 °C 29.73in /  1006.7hPa Calm   1.0mph /  1.6km/h 37% 0.00in /  0mm 0.0 W/m2
02:38 60.1 °F /  15.6 °C 34.3 °F /  1.3 °C 29.73in /  1006.7hPa Calm     38% 0.00in /  0mm 0.0 W/m2
02:44 59.7 °F /  15.4 °C 34.0 °F /  1.1 °C 29.72in /  1006.3hPa Calm   1.0mph /  1.6km/h 38% 0.00in /  0mm 0.0 W/m2
02:49 59.5 °F /  15.3 °C 34.0 °F /  1.1 °C 29.72in /  1006.3hPa Calm   1.0mph /  1.6km/h 38% 0.00in /  0mm 0.0 W/m2
02:54 59.4 °F /  15.2 °C 34.3 °F /  1.3 °C 29.72in /  1006.3hPa Calm   1.0mph /  1.6km/h 39% 0.00in /  0mm 0.0 W/m2
03:00 59.4 °F /  15.2 °C 33.8 °F /  1 °C 29.72in /  1006.3hPa Calm     38% 0.00in /  0mm 0.0 W/m2
03:05 59.2 °F /  15.1 °C 32.9 °F /  0.5 °C 29.72in /  1006.3hPa Calm   2.0mph /  3.2km/h 37% 0.00in /  0mm 0.0 W/m2
03:10 59.2 °F /  15.1 °C 32.9 °F /  0.5 °C 29.72in /  1006.3hPa Calm   1.0mph /  1.6km/h 37% 0.00in /  0mm 0.0 W/m2
03:16 59.0 °F /  15 °C 33.4 °F /  0.8 °C 29.72in /  1006.3hPa Calm   2.0mph /  3.2km/h 38% 0.00in /  0mm 0.0 W/m2
03:21 58.8 °F /  14.9 °C 34.0 °F /  1.1 °C 29.72in /  1006.3hPa Calm     39% 0.00in /  0mm 0.0 W/m2
03:26 58.6 °F /  14.8 °C 33.8 °F /  1 °C 29.72in /  1006.3hPa ESE 2.0mph /  3.2km/h 4.0mph /  6.4km/h 39% 0.00in /  0mm 0.0 W/m2
03:32 58.5 °F /  14.7 °C 32.9 °F /  0.5 °C 29.72in /  1006.3hPa Calm   2.0mph /  3.2km/h 38% 0.00in /  0mm 0.0 W/m2
03:37 58.5 °F /  14.7 °C 33.6 °F /  0.9 °C 29.72in /  1006.3hPa Calm   1.0mph /  1.6km/h 39% 0.00in /  0mm 0.0 W/m2
03:42 58.3 °F /  14.6 °C 32.7 °F /  0.4 °C 29.72in /  1006.3hPa ESE 2.0mph /  3.2km/h 3.0mph /  4.8km/h 38% 0.00in /  0mm 0.0 W/m2
03:48 58.3 °F /  14.6 °C 32.2 °F /  0.1 °C 29.72in /  1006.3hPa ESE 0.9mph /  1.4km/h 3.0mph /  4.8km/h 37% 0.00in /  0mm 0.0 W/m2
03:53 58.3 °F /  14.6 °C 31.5 °F /  -0.3 °C 29.72in /  1006.3hPa Calm   2.0mph /  3.2km/h 36% 0.00in /  0mm 0.0 W/m2
03:58 58.3 °F /  14.6 °C 32.2 °F /  0.1 °C 29.72in /  1006.3hPa Calm   2.0mph /  3.2km/h 37% 0.00in /  0mm 0.0 W/m2
04:04 58.3 °F /  14.6 °C 32.2 °F /  0.1 °C 29.72in /  1006.3hPa ESE 4.0mph /  6.4km/h 4.0mph /  6.4km/h 37% 0.00in /  0mm 0.0 W/m2
04:09 58.1 °F /  14.5 °C 31.3 °F /  -0.4 °C 29.72in /  1006.3hPa Calm   2.0mph /  3.2km/h 36% 0.00in /  0mm 0.0 W/m2
04:14 58.1 °F /  14.5 °C 31.3 °F /  -0.4 °C 29.72in /  1006.3hPa Calm   1.0mph /  1.6km/h 36% 0.00in /  0mm 0.0 W/m2
04:20 58.1 °F /  14.5 °C 30.6 °F /  -0.8 °C 29.72in /  1006.3hPa ESE 2.0mph /  3.2km/h 2.0mph /  3.2km/h 35% 0.00in /  0mm 0.0 W/m2
04:25 58.1 °F /  14.5 °C 30.6 °F /  -0.8 °C 29.72in /  1006.3hPa ESE 0.9mph /  1.4km/h 2.0mph /  3.2km/h 35% 0.00in /  0mm 0.0 W/m2
04:30 58.3 °F /  14.6 °C 30.7 °F /  -0.7 °C 29.72in /  1006.3hPa Calm   1.0mph /  1.6km/h 35% 0.00in /  0mm 0.0 W/m2
04:35 58.3 °F /  14.6 °C 32.7 °F /  0.4 °C 29.72in /  1006.3hPa Calm     38% 0.00in /  0mm 0.0 W/m2
04:40 57.9 °F /  14.4 °C 29.7 °F /  -1.3 °C 29.72in /  1006.3hPa ESE 2.0mph /  3.2km/h 3.0mph /  4.8km/h 34% 0.00in /  0mm 0.0 W/m2
04:45 57.9 °F /  14.4 °C 30.4 °F /  -0.9 °C 29.72in /  1006.3hPa ESE 0.9mph /  1.4km/h 1.0mph /  1.6km/h 35% 0.00in /  0mm 0.0 W/m2
04:51 57.9 °F /  14.4 °C 31.8 °F /  -0.1 °C 29.72in /  1006.3hPa Calm     37% 0.00in /  0mm 0.0 W/m2
04:56 57.7 °F /  14.3 °C 31.6 °F /  -0.2 °C 29.72in /  1006.3hPa East 0.9mph /  1.4km/h 3.0mph /  4.8km/h 37% 0.00in /  0mm 0.0 W/m2
05:01 57.7 °F /  14.3 °C 29.5 °F /  -1.4 °C 29.72in /  1006.3hPa Calm   4.0mph /  6.4km/h 34% 0.00in /  0mm 0.0 W/m2
05:06 57.7 °F /  14.3 °C 29.5 °F /  -1.4 °C 29.72in /  1006.3hPa Calm   1.0mph /  1.6km/h 34% 0.00in /  0mm 0.0 W/m2
05:11 57.9 °F /  14.4 °C 31.1 °F /  -0.5 °C 29.72in /  1006.3hPa Calm   3.0mph /  4.8km/h 36% 0.00in /  0mm 0.0 W/m2
05:16 57.7 °F /  14.3 °C 30.2 °F /  -1 °C 29.73in /  1006.7hPa Calm   1.0mph /  1.6km/h 35% 0.00in /  0mm 0.0 W/m2
05:22 57.7 °F /  14.3 °C 28.8 °F /  -1.8 °C 29.73in /  1006.7hPa East 0.9mph /  1.4km/h 2.0mph /  3.2km/h 33% 0.00in /  0mm 0.0 W/m2
05:27 57.7 °F /  14.3 °C 28.8 °F /  -1.8 °C 29.73in /  1006.7hPa Calm   2.0mph /  3.2km/h 33% 0.00in /  0mm 0.0 W/m2
05:33 57.7 °F /  14.3 °C 32.4 °F /  0.2 °C 29.73in /  1006.7hPa Calm     38% 0.00in /  0mm 0.0 W/m2
05:38 57.6 °F /  14.2 °C 31.5 °F /  -0.3 °C 29.73in /  1006.7hPa Calm     37% 0.00in /  0mm 0.0 W/m2
05:44 57.4 °F /  14.1 °C 30.0 °F /  -1.1 °C 29.73in /  1006.7hPa Calm   3.0mph /  4.8km/h 35% 0.00in /  0mm 0.0 W/m2
05:49 57.2 °F /  14 °C 31.1 °F /  -0.5 °C 29.73in /  1006.7hPa Calm   1.0mph /  1.6km/h 37% 0.00in /  0mm 0.0 W/m2
05:54 57.0 °F /  13.9 °C 32.4 °F /  0.2 °C 29.73in /  1006.7hPa Calm     39% 0.00in /  0mm 0.0 W/m2
05:59 56.8 °F /  13.8 °C 32.7 °F /  0.4 °C 29.73in /  1006.7hPa Calm     40% 0.00in /  0mm 0.0 W/m2
06:05 56.7 °F /  13.7 °C 30.7 °F /  -0.7 °C 29.74in /  1007hPa Calm   1.0mph /  1.6km/h 37% 0.00in /  0mm 0.0 W/m2
06:10 56.5 °F /  13.6 °C 31.8 °F /  -0.1 °C 29.74in /  1007hPa Calm   1.0mph /  1.6km/h 39% 0.00in /  0mm 0.0 W/m2
06:15 56.3 °F /  13.5 °C 31.1 °F /  -0.5 °C 29.73in /  1006.7hPa Calm   1.0mph /  1.6km/h 38% 0.00in /  0mm 0.0 W/m2
06:21 56.1 °F /  13.4 °C 30.9 °F /  -0.6 °C 29.74in /  1007hPa Calm   1.0mph /  1.6km/h 38% 0.00in /  0mm 0.0 W/m2
06:26 56.1 °F /  13.4 °C 28.8 °F /  -1.8 °C 29.74in /  1007hPa Calm   3.0mph /  4.8km/h 35% 0.00in /  0mm 0.0 W/m2
06:31 56.1 °F /  13.4 °C 28.8 °F /  -1.8 °C 29.74in /  1007hPa Calm   6.0mph /  9.7km/h 35% 0.00in /  0mm 0.0 W/m2
06:36 56.1 °F /  13.4 °C 28.8 °F /  -1.8 °C 29.74in /  1007hPa Calm   4.0mph /  6.4km/h 35% 0.00in /  0mm 0.0 W/m2
06:41 56.3 °F /  13.5 °C 28.9 °F /  -1.7 °C 29.75in /  1007.3hPa Calm   2.0mph /  3.2km/h 35% 0.00in /  0mm 0.0 W/m2
06:46 56.5 °F /  13.6 °C 29.8 °F /  -1.2 °C 29.75in /  1007.3hPa Calm     36% 0.00in /  0mm 5.0 W/m2
06:51 56.5 °F /  13.6 °C 31.8 °F /  -0.1 °C 29.75in /  1007.3hPa Calm     39% 0.00in /  0mm 7.0 W/m2
06:56 56.1 °F /  13.4 °C 32.2 °F /  0.1 °C 29.75in /  1007.3hPa Calm     40% 0.00in /  0mm 9.0 W/m2
07:01 56.1 °F /  13.4 °C 30.2 °F /  -1 °C 29.75in /  1007.3hPa Calm   3.0mph /  4.8km/h 37% 0.00in /  0mm 11.0 W/m2
07:07 56.1 °F /  13.4 °C 29.5 °F /  -1.4 °C 29.75in /  1007.3hPa Calm   2.0mph /  3.2km/h 36% 0.00in /  0mm 12.0 W/m2
07:12 56.1 °F /  13.4 °C 32.2 °F /  0.1 °C 29.76in /  1007.7hPa Calm   2.0mph /  3.2km/h 40% 0.00in /  0mm 14.0 W/m2
07:17 56.1 °F /  13.4 °C 32.7 °F /  0.4 °C 29.76in /  1007.7hPa Calm     41% 0.00in /  0mm 16.0 W/m2
07:22 56.1 °F /  13.4 °C 32.7 °F /  0.4 °C 29.76in /  1007.7hPa Calm     41% 0.00in /  0mm 18.0 W/m2
07:27 56.3 °F /  13.5 °C 31.1 °F /  -0.5 °C 29.76in /  1007.7hPa Calm   2.0mph /  3.2km/h 38% 0.00in /  0mm 19.0 W/m2
07:32 56.5 °F /  13.6 °C 31.1 °F /  -0.5 °C 29.77in /  1008hPa Calm     38% 0.00in /  0mm 19.0 W/m2
07:37 56.7 °F /  13.7 °C 30.7 °F /  -0.7 °C 29.77in /  1008hPa East 0.9mph /  1.4km/h 4.0mph /  6.4km/h 37% 0.00in /  0mm 21.0 W/m2
07:42 57.2 °F /  14 °C 31.8 °F /  -0.1 °C 29.77in /  1008hPa Calm   3.0mph /  4.8km/h 38% 0.00in /  0mm 21.0 W/m2
07:47 57.6 °F /  14.2 °C 29.5 °F /  -1.4 °C 29.77in /  1008hPa Calm     34% 0.00in /  0mm 26.0 W/m2
07:52 57.9 °F /  14.4 °C 31.1 °F /  -0.5 °C 29.77in /  1008hPa Calm     36% 0.00in /  0mm 25.0 W/m2
07:58 58.5 °F /  14.7 °C 32.4 °F /  0.2 °C 29.77in /  1008hPa Calm     37% 0.00in /  0mm 28.0 W/m2
08:04 59.4 °F /  15.2 °C 30.9 °F /  -0.6 °C 29.77in /  1008hPa East 0.9mph /  1.4km/h 1.0mph /  1.6km/h 34% 0.00in /  0mm 26.0 W/m2
08:09 60.3 °F /  15.7 °C 31.1 °F /  -0.5 °C 29.77in /  1008hPa Calm     33% 0.00in /  0mm 91.0 W/m2
08:14 61.2 °F /  16.2 °C 30.2 °F /  -1 °C 29.76in /  1007.7hPa Calm   1.0mph /  1.6km/h 31% 0.00in /  0mm 33.0 W/m2
08:19 62.2 °F /  16.8 °C 27.9 °F /  -2.3 °C 29.77in /  1008hPa Calm   2.0mph /  3.2km/h 27% 0.00in /  0mm 30.0 W/m2
08:24 63.3 °F /  17.4 °C 25.9 °F /  -3.4 °C 29.77in /  1008hPa Calm   3.0mph /  4.8km/h 24% 0.00in /  0mm 32.0 W/m2
08:29 64.2 °F /  17.9 °C 28.6 °F /  -1.9 °C 29.77in /  1008hPa SW 0.9mph /  1.4km/h 3.0mph /  4.8km/h 26% 0.00in /  0mm 32.0 W/m2
08:34 65.5 °F /  18.6 °C 24.4 °F /  -4.2 °C 29.77in /  1008hPa SW 2.9mph /  4.7km/h 8.0mph /  12.9km/h 21% 0.00in /  0mm 33.0 W/m2
08:39 66.9 °F /  19.4 °C 26.8 °F /  -2.9 °C 29.76in /  1007.7hPa South 4.9mph /  7.9km/h 9.0mph /  14.5km/h 22% 0.00in /  0mm 33.0 W/m2
08:45 68.2 °F /  20.1 °C 26.8 °F /  -2.9 °C 29.77in /  1008hPa Calm   8.0mph /  12.9km/h 21% 0.00in /  0mm 37.0 W/m2
08:50 69.1 °F /  20.6 °C 26.2 °F /  -3.2 °C 29.77in /  1008hPa SSE 4.9mph /  7.9km/h 9.0mph /  14.5km/h 20% 0.00in /  0mm 46.0 W/m2
08:55 69.6 °F /  20.9 °C 25.5 °F /  -3.6 °C 29.77in /  1008hPa SSW 2.0mph /  3.2km/h 7.0mph /  11.3km/h 19% 0.00in /  0mm 508.0 W/m2
09:00 70.3 °F /  21.3 °C 26.1 °F /  -3.3 °C 29.77in /  1008hPa SW 6.9mph /  11.1km/h 13.0mph /  20.9km/h 19% 0.00in /  0mm 529.0 W/m2
09:05 71.1 °F /  21.7 °C 26.8 °F /  -2.9 °C 29.77in /  1008hPa SSW 2.9mph /  4.7km/h 11.0mph /  17.7km/h 19% 0.00in /  0mm 550.0 W/m2
09:10 72.0 °F /  22.2 °C 26.1 °F /  -3.3 °C 29.78in /  1008.4hPa SSW 0.9mph /  1.4km/h 6.0mph /  9.7km/h 18% 0.00in /  0mm 570.0 W/m2
09:15 72.7 °F /  22.6 °C 25.3 °F /  -3.7 °C 29.78in /  1008.4hPa South 4.0mph /  6.4km/h 4.0mph /  6.4km/h 17% 0.00in /  0mm 589.0 W/m2
09:20 73.2 °F /  22.9 °C 25.7 °F /  -3.5 °C 29.78in /  1008.4hPa Calm   2.0mph /  3.2km/h 17% 0.00in /  0mm 606.0 W/m2
09:25 73.8 °F /  23.2 °C 26.2 °F /  -3.2 °C 29.78in /  1008.4hPa Calm   1.0mph /  1.6km/h 17% 0.00in /  0mm 626.0 W/m2
09:31 75.0 °F /  23.9 °C 22.6 °F /  -5.2 °C 29.78in /  1008.4hPa NE 2.0mph /  3.2km/h 5.0mph /  8km/h 14% 0.00in /  0mm 647.0 W/m2
09:36 76.5 °F /  24.7 °C 21.9 °F /  -5.6 °C 29.78in /  1008.4hPa ENE 2.0mph /  3.2km/h 7.0mph /  11.3km/h 13% 0.00in /  0mm 664.0 W/m2
09:41 77.5 °F /  25.3 °C 22.8 °F /  -5.1 °C 29.78in /  1008.4hPa North 2.9mph /  4.7km/h 7.0mph /  11.3km/h 13% 0.00in /  0mm 682.0 W/m2
09:46 78.4 °F /  25.8 °C 21.6 °F /  -5.8 °C 29.77in /  1008hPa Calm   4.0mph /  6.4km/h 12% 0.00in /  0mm 701.0 W/m2
09:51 79.2 °F /  26.2 °C 22.1 °F /  -5.5 °C 29.78in /  1008.4hPa Calm   5.0mph /  8km/h 12% 0.00in /  0mm 719.0 W/m2
09:56 79.5 °F /  26.4 °C 22.5 °F /  -5.3 °C 29.77in /  1008hPa ENE 4.9mph /  7.9km/h 5.0mph /  8km/h 12% 0.00in /  0mm 737.0 W/m2
10:01 80.1 °F /  26.7 °C 20.8 °F /  -6.2 °C 29.78in /  1008.4hPa NNW 2.9mph /  4.7km/h 5.0mph /  8km/h 11% 0.00in /  0mm 752.0 W/m2
10:06 80.4 °F /  26.9 °C 21.0 °F /  -6.1 °C 29.77in /  1008hPa NE 7.0mph /  11.3km/h 7.0mph /  11.3km/h 11% 0.00in /  0mm 770.0 W/m2
10:11 80.8 °F /  27.1 °C 23.4 °F /  -4.8 °C 29.78in /  1008.4hPa East 2.9mph /  4.7km/h 7.0mph /  11.3km/h 12% 0.00in /  0mm 782.0 W/m2
10:17 81.0 °F /  27.2 °C 23.5 °F /  -4.7 °C 29.77in /  1008hPa NE 4.0mph /  6.4km/h 5.0mph /  8km/h 12% 0.00in /  0mm 798.0 W/m2
10:22 81.5 °F /  27.5 °C 24.1 °F /  -4.4 °C 29.77in /  1008hPa Calm   3.0mph /  4.8km/h 12% 0.00in /  0mm 814.0 W/m2
10:27 82.0 °F /  27.8 °C 26.4 °F /  -3.1 °C 29.77in /  1008hPa NE 2.9mph /  4.7km/h 9.0mph /  14.5km/h 13% 0.00in /  0mm 830.0 W/m2
10:32 82.6 °F /  28.1 °C 26.8 °F /  -2.9 °C 29.77in /  1008hPa NE 2.0mph /  3.2km/h 5.0mph /  8km/h 13% 0.00in /  0mm 840.0 W/m2
10:37 82.9 °F /  28.3 °C 28.8 °F /  -1.8 °C 29.77in /  1008hPa East 4.0mph /  6.4km/h 8.0mph /  12.9km/h 14% 0.00in /  0mm 854.0 W/m2
10:42 82.9 °F /  28.3 °C 27.0 °F /  -2.8 °C 29.77in /  1008hPa NNW 0.9mph /  1.4km/h 6.0mph /  9.7km/h 13% 0.00in /  0mm 870.0 W/m2
10:47 82.9 °F /  28.3 °C 28.8 °F /  -1.8 °C 29.77in /  1008hPa ENE 4.0mph /  6.4km/h 8.0mph /  12.9km/h 14% 0.00in /  0mm 882.0 W/m2
10:52 83.1 °F /  28.4 °C 30.7 °F /  -0.7 °C 29.77in /  1008hPa SE 2.9mph /  4.7km/h 5.0mph /  8km/h 15% 0.00in /  0mm 896.0 W/m2
10:54 82.9 °F /  28.3 °C 28.8 °F /  -1.8 °C 29.76in /  1007.7hPa SSE 4.0mph /  6.4km/h 4.0mph /  6.4km/h 14% 0.00in /  0mm 900.0 W/m2
10:59 82.9 °F /  28.3 °C 28.8 °F /  -1.8 °C 29.76in /  1007.7hPa NNW 2.0mph /  3.2km/h 4.0mph /  6.4km/h 14% 0.00in /  0mm 911.0 W/m2
11:04 83.5 °F /  28.6 °C 27.5 °F /  -2.5 °C 29.76in /  1007.7hPa Calm   3.0mph /  4.8km/h 13% 0.00in /  0mm 921.0 W/m2
11:09 84.0 °F /  28.9 °C 29.7 °F /  -1.3 °C 29.76in /  1007.7hPa SE 4.0mph /  6.4km/h 6.0mph /  9.7km/h 14% 0.00in /  0mm 932.0 W/m2
11:14 83.7 °F /  28.7 °C 29.5 °F /  -1.4 °C 29.76in /  1007.7hPa NE 4.0mph /  6.4km/h 7.0mph /  11.3km/h 14% 0.00in /  0mm 942.0 W/m2
11:19 83.8 °F /  28.8 °C 29.5 °F /  -1.4 °C 29.76in /  1007.7hPa Calm   3.0mph /  4.8km/h 14% 0.00in /  0mm 953.0 W/m2
11:24 83.7 °F /  28.7 °C 29.5 °F /  -1.4 °C 29.75in /  1007.3hPa WNW 4.0mph /  6.4km/h 4.0mph /  6.4km/h 14% 0.00in /  0mm 963.0 W/m2
11:29 83.5 °F /  28.6 °C 29.3 °F /  -1.5 °C 29.75in /  1007.3hPa NNE 4.0mph /  6.4km/h 5.0mph /  8km/h 14% 0.00in /  0mm 972.0 W/m2
11:34 84.0 °F /  28.9 °C 29.7 °F /  -1.3 °C 29.75in /  1007.3hPa SE 0.9mph /  1.4km/h 3.0mph /  4.8km/h 14% 0.00in /  0mm 979.0 W/m2
11:39 84.6 °F /  29.2 °C 30.2 °F /  -1 °C 29.75in /  1007.3hPa SSW 2.0mph /  3.2km/h 5.0mph /  8km/h 14% 0.00in /  0mm 990.0 W/m2
11:45 84.9 °F /  29.4 °C 32.2 °F /  0.1 °C 29.75in /  1007.3hPa ENE 2.0mph /  3.2km/h 7.0mph /  11.3km/h 15% 0.00in /  0mm 1000.0 W/m2
11:50 85.6 °F /  29.8 °C 32.7 °F /  0.4 °C 29.75in /  1007.3hPa ENE 2.0mph /  3.2km/h 3.0mph /  4.8km/h 15% 0.00in /  0mm 1009.0 W/m2
11:55 86.2 °F /  30.1 °C 31.5 °F /  -0.3 °C 29.75in /  1007.3hPa NNE 0.9mph /  1.4km/h 5.0mph /  8km/h 14% 0.00in /  0mm 1013.0 W/m2
12:00 86.5 °F /  30.3 °C 33.4 °F /  0.8 °C 29.74in /  1007hPa NNW 2.0mph /  3.2km/h 2.0mph /  3.2km/h 15% 0.00in /  0mm 1020.0 W/m2
12:05 86.7 °F /  30.4 °C 33.6 °F /  0.9 °C 29.74in /  1007hPa West 0.9mph /  1.4km/h 4.0mph /  6.4km/h 15% 0.00in /  0mm 1027.0 W/m2
12:10 86.4 °F /  30.2 °C 31.5 °F /  -0.3 °C 29.74in /  1007hPa NNW 2.9mph /  4.7km/h 5.0mph /  8km/h 14% 0.00in /  0mm 1027.0 W/m2
12:15 86.4 °F /  30.2 °C 31.5 °F /  -0.3 °C 29.74in /  1007hPa NW 2.9mph /  4.7km/h 6.0mph /  9.7km/h 14% 0.00in /  0mm 1034.0 W/m2
12:20 86.5 °F /  30.3 °C 33.4 °F /  0.8 °C 29.74in /  1007hPa West 4.9mph /  7.9km/h 8.0mph /  12.9km/h 15% 0.00in /  0mm 1035.0 W/m2
12:25 86.4 °F /  30.2 °C 31.5 °F /  -0.3 °C 29.73in /  1006.7hPa WSW 4.0mph /  6.4km/h 6.0mph /  9.7km/h 14% 0.00in /  0mm 1041.0 W/m2
12:30 86.2 °F /  30.1 °C 31.5 °F /  -0.3 °C 29.74in /  1007hPa WSW 0.9mph /  1.4km/h 4.0mph /  6.4km/h 14% 0.00in /  0mm 1041.0 W/m2
12:36 86.2 °F /  30.1 °C 33.1 °F /  0.6 °C 29.73in /  1006.7hPa NNW 0.9mph /  1.4km/h 6.0mph /  9.7km/h 15% 0.00in /  0mm 1044.0 W/m2
12:41 86.7 °F /  30.4 °C 33.6 °F /  0.9 °C 29.73in /  1006.7hPa West 6.0mph /  9.7km/h 6.0mph /  9.7km/h 15% 0.00in /  0mm 1048.0 W/m2
12:46 87.1 °F /  30.6 °C 32.2 °F /  0.1 °C 29.73in /  1006.7hPa West 2.0mph /  3.2km/h 6.0mph /  9.7km/h 14% 0.00in /  0mm 1051.0 W/m2
12:51 87.3 °F /  30.7 °C 32.2 °F /  0.1 °C 29.73in /  1006.7hPa NW 2.9mph /  4.7km/h 6.0mph /  9.7km/h 14% 0.00in /  0mm 1051.0 W/m2
12:56 87.6 °F /  30.9 °C 32.5 °F /  0.3 °C 29.73in /  1006.7hPa NW 2.9mph /  4.7km/h 7.0mph /  11.3km/h 14% 0.00in /  0mm 1056.0 W/m2
13:01 88.0 °F /  31.1 °C 30.9 °F /  -0.6 °C 29.73in /  1006.7hPa SSW 6.0mph /  9.7km/h 8.0mph /  12.9km/h 13% 0.00in /  0mm 1053.0 W/m2
13:06 87.6 °F /  30.9 °C 34.3 °F /  1.3 °C 29.72in /  1006.3hPa NNW 4.0mph /  6.4km/h 6.0mph /  9.7km/h 15% 0.00in /  0mm 1053.0 W/m2
13:11 88.0 °F /  31.1 °C 32.9 °F /  0.5 °C 29.73in /  1006.7hPa Calm   6.0mph /  9.7km/h 14% 0.00in /  0mm 1055.0 W/m2
13:16 88.3 °F /  31.3 °C 31.3 °F /  -0.4 °C 29.72in /  1006.3hPa SSW 0.9mph /  1.4km/h 3.0mph /  4.8km/h 13% 0.00in /  0mm 1048.0 W/m2
13:22 88.7 °F /  31.5 °C 31.5 °F /  -0.3 °C 29.72in /  1006.3hPa NW 0.9mph /  1.4km/h 8.0mph /  12.9km/h 13% 0.00in /  0mm 1053.0 W/m2
13:27 89.1 °F /  31.7 °C 31.8 °F /  -0.1 °C 29.72in /  1006.3hPa West 0.9mph /  1.4km/h 4.0mph /  6.4km/h 13% 0.00in /  0mm 1046.0 W/m2
13:32 89.1 °F /  31.7 °C 31.8 °F /  -0.1 °C 29.72in /  1006.3hPa South 4.9mph /  7.9km/h 6.0mph /  9.7km/h 13% 0.00in /  0mm 1042.0 W/m2
13:37 88.5 °F /  31.4 °C 33.3 °F /  0.7 °C 29.72in /  1006.3hPa SW 2.9mph /  4.7km/h 6.0mph /  9.7km/h 14% 0.00in /  0mm 1035.0 W/m2
13:42 88.5 °F /  31.4 °C 33.3 °F /  0.7 °C 29.72in /  1006.3hPa NW 0.9mph /  1.4km/h 7.0mph /  11.3km/h 14% 0.00in /  0mm 1032.0 W/m2
13:47 88.7 °F /  31.5 °C 33.4 °F /  0.8 °C 29.72in /  1006.3hPa West 0.9mph /  1.4km/h 6.0mph /  9.7km/h 14% 0.00in /  0mm 1027.0 W/m2
13:53 89.1 °F /  31.7 °C 33.6 °F /  0.9 °C 29.72in /  1006.3hPa North 0.9mph /  1.4km/h 7.0mph /  11.3km/h 14% 0.00in /  0mm 1021.0 W/m2
13:58 89.8 °F /  32.1 °C 32.4 °F /  0.2 °C 29.71in /  1006hPa Calm   4.0mph /  6.4km/h 13% 0.00in /  0mm 1016.0 W/m2
14:03 89.8 °F /  32.1 °C 32.4 °F /  0.2 °C 29.71in /  1006hPa WNW 0.9mph /  1.4km/h 16.0mph /  25.7km/h 13% 0.00in /  0mm 1013.0 W/m2
14:09 89.8 °F /  32.1 °C 32.4 °F /  0.2 °C 29.71in /  1006hPa West 2.9mph /  4.7km/h 7.0mph /  11.3km/h 13% 0.00in /  0mm 1004.0 W/m2
14:14 89.4 °F /  31.9 °C 34.0 °F /  1.1 °C 29.71in /  1006hPa SE 2.0mph /  3.2km/h 6.0mph /  9.7km/h 14% 0.00in /  0mm 995.0 W/m2
14:19 89.4 °F /  31.9 °C 34.0 °F /  1.1 °C 29.71in /  1006hPa Calm   7.0mph /  11.3km/h 14% 0.00in /  0mm 984.0 W/m2
14:24 90.1 °F /  32.3 °C 32.7 °F /  0.4 °C 29.71in /  1006hPa NNW 4.0mph /  6.4km/h 4.0mph /  6.4km/h 13% 0.00in /  0mm 976.0 W/m2
14:29 90.7 °F /  32.6 °C 33.1 °F /  0.6 °C 29.71in /  1006hPa SSE 2.9mph /  4.7km/h 8.0mph /  12.9km/h 13% 0.00in /  0mm 972.0 W/m2
14:34 90.9 °F /  32.7 °C 33.3 °F /  0.7 °C 29.71in /  1006hPa WNW 6.9mph /  11.1km/h 7.0mph /  11.3km/h 13% 0.00in /  0mm 962.0 W/m2
14:39 90.9 °F /  32.7 °C 31.3 °F /  -0.4 °C 29.70in /  1005.6hPa WSW 2.0mph /  3.2km/h 5.0mph /  8km/h 12% 0.00in /  0mm 953.0 W/m2
14:44 90.7 °F /  32.6 °C 33.1 °F /  0.6 °C 29.70in /  1005.6hPa Calm   4.0mph /  6.4km/h 13% 0.00in /  0mm 942.0 W/m2
14:49 90.9 °F /  32.7 °C 31.3 °F /  -0.4 °C 29.70in /  1005.6hPa WSW 2.9mph /  4.7km/h 8.0mph /  12.9km/h 12% 0.00in /  0mm 933.0 W/m2
14:55 90.9 °F /  32.7 °C 31.3 °F /  -0.4 °C 29.70in /  1005.6hPa WSW 2.0mph /  3.2km/h 7.0mph /  11.3km/h 12% 0.00in /  0mm 921.0 W/m2
15:01 90.9 °F /  32.7 °C 31.3 °F /  -0.4 °C 29.70in /  1005.6hPa North 0.9mph /  1.4km/h 1.0mph /  1.6km/h 12% 0.00in /  0mm 911.0 W/m2
15:06 91.0 °F /  32.8 °C 31.5 °F /  -0.3 °C 29.69in /  1005.3hPa ENE 8.1mph /  13km/h 9.0mph /  14.5km/h 12% 0.00in /  0mm 896.0 W/m2
15:11 91.2 °F /  32.9 °C 29.3 °F /  -1.5 °C 29.69in /  1005.3hPa WNW 0.9mph /  1.4km/h 5.0mph /  8km/h 11% 0.00in /  0mm 884.0 W/m2
15:16 91.6 °F /  33.1 °C 29.7 °F /  -1.3 °C 29.69in /  1005.3hPa WNW 0.9mph /  1.4km/h 4.0mph /  6.4km/h 11% 0.00in /  0mm 874.0 W/m2
15:21 91.8 °F /  33.2 °C 29.8 °F /  -1.2 °C 29.69in /  1005.3hPa NW 2.0mph /  3.2km/h 10.0mph /  16.1km/h 11% 0.00in /  0mm 861.0 W/m2
15:26 91.8 °F /  33.2 °C 29.8 °F /  -1.2 °C 29.68in /  1005hPa East 0.9mph /  1.4km/h 6.0mph /  9.7km/h 11% 0.00in /  0mm 846.0 W/m2
15:31 91.9 °F /  33.3 °C 30.0 °F /  -1.1 °C 29.68in /  1005hPa NE 4.0mph /  6.4km/h 7.0mph /  11.3km/h 11% 0.00in /  0mm 835.0 W/m2
15:36 92.5 °F /  33.6 °C 30.4 °F /  -0.9 °C 29.68in /  1005hPa West 2.0mph /  3.2km/h 6.0mph /  9.7km/h 11% 0.00in /  0mm 821.0 W/m2
15:41 92.5 °F /  33.6 °C 32.5 °F /  0.3 °C 29.68in /  1005hPa NW 2.9mph /  4.7km/h 5.0mph /  8km/h 12% 0.00in /  0mm 805.0 W/m2
15:47 92.7 °F /  33.7 °C 30.6 °F /  -0.8 °C 29.67in /  1004.6hPa NW 4.9mph /  7.9km/h 11.0mph /  17.7km/h 11% 0.00in /  0mm 788.0 W/m2
15:53 92.8 °F /  33.8 °C 30.6 °F /  -0.8 °C 29.67in /  1004.6hPa NNW 4.0mph /  6.4km/h 6.0mph /  9.7km/h 11% 0.00in /  0mm 768.0 W/m2
15:58 93.0 °F /  33.9 °C 30.7 °F /  -0.7 °C 29.67in /  1004.6hPa Calm   1.0mph /  1.6km/h 11% 0.00in /  0mm 754.0 W/m2
16:03 93.4 °F /  34.1 °C 31.1 °F /  -0.5 °C 29.67in /  1004.6hPa SSW 0.9mph /  1.4km/h 1.0mph /  1.6km/h 11% 0.00in /  0mm 731.0 W/m2
16:09 93.0 °F /  33.9 °C 30.7 °F /  -0.7 °C 29.67in /  1004.6hPa WSW 2.0mph /  3.2km/h 5.0mph /  8km/h 11% 0.00in /  0mm 717.0 W/m2
16:14 92.5 °F /  33.6 °C 32.5 °F /  0.3 °C 29.67in /  1004.6hPa Calm   1.0mph /  1.6km/h 12% 0.00in /  0mm 696.0 W/m2
16:19 92.7 °F /  33.7 °C 32.7 °F /  0.4 °C 29.66in /  1004.3hPa West 2.0mph /  3.2km/h 6.0mph /  9.7km/h 12% 0.00in /  0mm 679.0 W/m2
16:24 92.7 °F /  33.7 °C 32.7 °F /  0.4 °C 29.66in /  1004.3hPa WNW 2.0mph /  3.2km/h 7.0mph /  11.3km/h 12% 0.00in /  0mm 668.0 W/m2
16:29 91.9 °F /  33.3 °C 32.0 °F /  0 °C 29.66in /  1004.3hPa Calm   4.0mph /  6.4km/h 12% 0.00in /  0mm 649.0 W/m2
16:34 92.1 °F /  33.4 °C 34.2 °F /  1.2 °C 29.66in /  1004.3hPa NW 0.9mph /  1.4km/h 8.0mph /  12.9km/h 13% 0.00in /  0mm 635.0 W/m2
16:40 92.8 °F /  33.8 °C 32.7 °F /  0.4 °C 29.66in /  1004.3hPa NE 2.9mph /  4.7km/h 4.0mph /  6.4km/h 12% 0.00in /  0mm 619.0 W/m2
16:45 93.0 °F /  33.9 °C 32.9 °F /  0.5 °C 29.66in /  1004.3hPa WSW 0.9mph /  1.4km/h 5.0mph /  8km/h 12% 0.00in /  0mm 594.0 W/m2
16:50 92.8 °F /  33.8 °C 32.7 °F /  0.4 °C 29.66in /  1004.3hPa WSW 2.9mph /  4.7km/h 3.0mph /  4.8km/h 12% 0.00in /  0mm 577.0 W/m2
16:55 92.3 °F /  33.5 °C 34.3 °F /  1.3 °C 29.66in /  1004.3hPa SSW 4.0mph /  6.4km/h 5.0mph /  8km/h 13% 0.00in /  0mm 559.0 W/m2
17:00 91.8 °F /  33.2 °C 32.0 °F /  0 °C 29.65in /  1003.9hPa Calm   1.0mph /  1.6km/h 12% 0.00in /  0mm 536.0 W/m2
17:05 91.8 °F /  33.2 °C 34.0 °F /  1.1 °C 29.66in /  1004.3hPa NW 2.0mph /  3.2km/h 5.0mph /  8km/h 13% 0.00in /  0mm 520.0 W/m2
17:10 91.9 °F /  33.3 °C 34.2 °F /  1.2 °C 29.65in /  1003.9hPa SW 0.9mph /  1.4km/h 7.0mph /  11.3km/h 13% 0.00in /  0mm 503.0 W/m2
17:15 92.5 °F /  33.6 °C 34.5 °F /  1.4 °C 29.65in /  1003.9hPa NNW 4.0mph /  6.4km/h 5.0mph /  8km/h 13% 0.00in /  0mm 480.0 W/m2
17:21 92.8 °F /  33.8 °C 34.7 °F /  1.5 °C 29.65in /  1003.9hPa North 0.9mph /  1.4km/h 5.0mph /  8km/h 13% 0.00in /  0mm 461.0 W/m2
17:26 92.8 °F /  33.8 °C 32.7 °F /  0.4 °C 29.65in /  1003.9hPa Calm   8.0mph /  12.9km/h 12% 0.00in /  0mm 443.0 W/m2
17:31 92.8 °F /  33.8 °C 32.7 °F /  0.4 °C 29.65in /  1003.9hPa North 4.9mph /  7.9km/h 9.0mph /  14.5km/h 12% 0.00in /  0mm 425.0 W/m2
17:36 92.1 °F /  33.4 °C 32.2 °F /  0.1 °C 29.65in /  1003.9hPa NNE 2.0mph /  3.2km/h 7.0mph /  11.3km/h 12% 0.00in /  0mm 403.0 W/m2
17:41 91.6 °F /  33.1 °C 31.8 °F /  -0.1 °C 29.65in /  1003.9hPa North 4.9mph /  7.9km/h 8.0mph /  12.9km/h 12% 0.00in /  0mm 380.0 W/m2
17:46 90.9 °F /  32.7 °C 31.3 °F /  -0.4 °C 29.65in /  1003.9hPa NNE 4.0mph /  6.4km/h 5.0mph /  8km/h 12% 0.00in /  0mm 359.0 W/m2
17:51 90.7 °F /  32.6 °C 33.1 °F /  0.6 °C 29.65in /  1003.9hPa NW 0.9mph /  1.4km/h 4.0mph /  6.4km/h 13% 0.00in /  0mm 343.0 W/m2
17:56 90.7 °F /  32.6 °C 33.1 °F /  0.6 °C 29.65in /  1003.9hPa NW 0.9mph /  1.4km/h 4.0mph /  6.4km/h 13% 0.00in /  0mm 322.0 W/m2
18:01 90.9 °F /  32.7 °C 33.3 °F /  0.7 °C 29.65in /  1003.9hPa NW 0.9mph /  1.4km/h 3.0mph /  4.8km/h 13% 0.00in /  0mm 299.0 W/m2
18:06 91.2 °F /  32.9 °C 35.4 °F /  1.9 °C 29.65in /  1003.9hPa WSW 2.9mph /  4.7km/h 8.0mph /  12.9km/h 14% 0.00in /  0mm 278.0 W/m2
18:12 91.0 °F /  32.8 °C 35.2 °F /  1.8 °C 29.66in /  1004.3hPa NNW 2.0mph /  3.2km/h 6.0mph /  9.7km/h 14% 0.00in /  0mm 257.0 W/m2
18:17 91.2 °F /  32.9 °C 35.4 °F /  1.9 °C 29.66in /  1004.3hPa WNW 2.0mph /  3.2km/h 5.0mph /  8km/h 14% 0.00in /  0mm 230.0 W/m2
18:22 91.2 °F /  32.9 °C 35.4 °F /  1.9 °C 29.66in /  1004.3hPa WSW 4.9mph /  7.9km/h 5.0mph /  8km/h 14% 0.00in /  0mm 213.0 W/m2
18:27 90.7 °F /  32.6 °C 34.9 °F /  1.6 °C 29.66in /  1004.3hPa SW 4.0mph /  6.4km/h 8.0mph /  12.9km/h 14% 0.00in /  0mm 192.0 W/m2
18:32 90.1 °F /  32.3 °C 34.5 °F /  1.4 °C 29.66in /  1004.3hPa SSW 2.0mph /  3.2km/h 4.0mph /  6.4km/h 14% 0.00in /  0mm 172.0 W/m2
18:38 89.8 °F /  32.1 °C 34.2 °F /  1.2 °C 29.66in /  1004.3hPa WSW 2.9mph /  4.7km/h 7.0mph /  11.3km/h 14% 0.00in /  0mm 142.0 W/m2
18:43 89.1 °F /  31.7 °C 33.6 °F /  0.9 °C 29.66in /  1004.3hPa Calm   4.0mph /  6.4km/h 14% 0.00in /  0mm 118.0 W/m2
18:48 88.9 °F /  31.6 °C 35.2 °F /  1.8 °C 29.66in /  1004.3hPa West 2.9mph /  4.7km/h 5.0mph /  8km/h 15% 0.00in /  0mm 97.0 W/m2
18:53 88.2 °F /  31.2 °C 34.7 °F /  1.5 °C 29.66in /  1004.3hPa WSW 4.9mph /  7.9km/h 8.0mph /  12.9km/h 15% 0.00in /  0mm 76.0 W/m2
18:59 87.6 °F /  30.9 °C 34.3 °F /  1.3 °C 29.67in /  1004.6hPa Calm   6.0mph /  9.7km/h 15% 0.00in /  0mm 56.0 W/m2
19:04 87.1 °F /  30.6 °C 32.2 °F /  0.1 °C 29.67in /  1004.6hPa WSW 6.9mph /  11.1km/h 9.0mph /  14.5km/h 14% 0.00in /  0mm 39.0 W/m2
19:09 86.4 °F /  30.2 °C 31.5 °F /  -0.3 °C 29.67in /  1004.6hPa WSW 2.9mph /  4.7km/h 8.0mph /  12.9km/h 14% 0.00in /  0mm 26.0 W/m2
19:14 85.5 °F /  29.7 °C 30.9 °F /  -0.6 °C 29.68in /  1005hPa Calm   8.0mph /  12.9km/h 14% 0.00in /  0mm 16.0 W/m2
19:19 84.7 °F /  29.3 °C 30.2 °F /  -1 °C 29.68in /  1005hPa WSW 4.9mph /  7.9km/h 7.0mph /  11.3km/h 14% 0.00in /  0mm 9.0 W/m2
19:24 84.0 °F /  28.9 °C 29.7 °F /  -1.3 °C 29.68in /  1005hPa WSW 2.0mph /  3.2km/h 5.0mph /  8km/h 14% 0.00in /  0mm 5.0 W/m2
19:29 83.5 °F /  28.6 °C 29.3 °F /  -1.5 °C 29.68in /  1005hPa West 11.0mph /  17.7km/h 11.0mph /  17.7km/h 14% 0.00in /  0mm 0.0 W/m2
19:34 82.8 °F /  28.2 °C 28.8 °F /  -1.8 °C 29.69in /  1005.3hPa WSW 2.9mph /  4.7km/h 8.0mph /  12.9km/h 14% 0.00in /  0mm 0.0 W/m2
19:39 82.2 °F /  27.9 °C 28.2 °F /  -2.1 °C 29.69in /  1005.3hPa West 2.0mph /  3.2km/h 5.0mph /  8km/h 14% 0.00in /  0mm 0.0 W/m2
19:44 81.9 °F /  27.7 °C 28.0 °F /  -2.2 °C 29.69in /  1005.3hPa WSW 2.9mph /  4.7km/h 6.0mph /  9.7km/h 14% 0.00in /  0mm 0.0 W/m2
19:50 81.3 °F /  27.4 °C 29.3 °F /  -1.5 °C 29.70in /  1005.6hPa SW 0.9mph /  1.4km/h 5.0mph /  8km/h 15% 0.00in /  0mm 0.0 W/m2
19:55 81.1 °F /  27.3 °C 29.1 °F /  -1.6 °C 29.70in /  1005.6hPa SW 2.9mph /  4.7km/h 8.0mph /  12.9km/h 15% 0.00in /  0mm 0.0 W/m2
20:00 80.8 °F /  27.1 °C 28.8 °F /  -1.8 °C 29.70in /  1005.6hPa WSW 4.9mph /  7.9km/h 7.0mph /  11.3km/h 15% 0.00in /  0mm 0.0 W/m2
20:05 80.4 °F /  26.9 °C 28.6 °F /  -1.9 °C 29.71in /  1006hPa SW 0.9mph /  1.4km/h 8.0mph /  12.9km/h 15% 0.00in /  0mm 0.0 W/m2
20:10 80.2 °F /  26.8 °C 28.4 °F /  -2 °C 29.71in /  1006hPa WSW 2.0mph /  3.2km/h 7.0mph /  11.3km/h 15% 0.00in /  0mm 0.0 W/m2
20:15 80.1 °F /  26.7 °C 28.2 °F /  -2.1 °C 29.71in /  1006hPa SW 0.9mph /  1.4km/h 5.0mph /  8km/h 15% 0.00in /  0mm 0.0 W/m2
20:20 79.5 °F /  26.4 °C 29.5 °F /  -1.4 °C 29.71in /  1006hPa Calm   6.0mph /  9.7km/h 16% 0.00in /  0mm 0.0 W/m2
20:25 79.3 °F /  26.3 °C 29.3 °F /  -1.5 °C 29.72in /  1006.3hPa Calm   2.0mph /  3.2km/h 16% 0.00in /  0mm 0.0 W/m2
20:31 79.0 °F /  26.1 °C 28.9 °F /  -1.7 °C 29.72in /  1006.3hPa SSW 2.0mph /  3.2km/h 5.0mph /  8km/h 16% 0.00in /  0mm 0.0 W/m2
20:36 78.6 °F /  25.9 °C 28.8 °F /  -1.8 °C 29.72in /  1006.3hPa SW 4.0mph /  6.4km/h 7.0mph /  11.3km/h 16% 0.00in /  0mm 0.0 W/m2
20:41 78.3 °F /  25.7 °C 28.4 °F /  -2 °C 29.73in /  1006.7hPa Calm   4.0mph /  6.4km/h 16% 0.00in /  0mm 0.0 W/m2
20:46 78.1 °F /  25.6 °C 28.2 °F /  -2.1 °C 29.73in /  1006.7hPa Calm   4.0mph /  6.4km/h 16% 0.00in /  0mm 0.0 W/m2
20:51 77.7 °F /  25.4 °C 27.9 °F /  -2.3 °C 29.73in /  1006.7hPa SW 2.0mph /  3.2km/h 3.0mph /  4.8km/h 16% 0.00in /  0mm 0.0 W/m2
20:56 77.4 °F /  25.2 °C 27.7 °F /  -2.4 °C 29.74in /  1007hPa Calm   6.0mph /  9.7km/h 16% 0.00in /  0mm 0.0 W/m2
21:01 77.0 °F /  25 °C 27.3 °F /  -2.6 °C 29.74in /  1007hPa Calm   7.0mph /  11.3km/h 16% 0.00in /  0mm 0.0 W/m2
21:06 76.6 °F /  24.8 °C 28.6 °F /  -1.9 °C 29.75in /  1007.3hPa Calm   1.0mph /  1.6km/h 17% 0.00in /  0mm 0.0 W/m2
21:11 76.5 °F /  24.7 °C 27.0 °F /  -2.8 °C 29.75in /  1007.3hPa South 4.0mph /  6.4km/h 4.0mph /  6.4km/h 16% 0.00in /  0mm 0.0 W/m2
21:16 76.3 °F /  24.6 °C 26.8 °F /  -2.9 °C 29.75in /  1007.3hPa Calm   2.0mph /  3.2km/h 16% 0.00in /  0mm 0.0 W/m2
21:22 75.9 °F /  24.4 °C 28.0 °F /  -2.2 °C 29.76in /  1007.7hPa East 0.9mph /  1.4km/h 2.0mph /  3.2km/h 17% 0.00in /  0mm 0.0 W/m2
21:27 75.6 °F /  24.2 °C 27.7 °F /  -2.4 °C 29.77in /  1008hPa SSE 0.9mph /  1.4km/h 4.0mph /  6.4km/h 17% 0.00in /  0mm 0.0 W/m2
21:32 75.4 °F /  24.1 °C 26.1 °F /  -3.3 °C 29.77in /  1008hPa Calm   7.0mph /  11.3km/h 16% 0.00in /  0mm 0.0 W/m2
21:37 75.2 °F /  24 °C 25.9 °F /  -3.4 °C 29.77in /  1008hPa SW 0.9mph /  1.4km/h 11.0mph /  17.7km/h 16% 0.00in /  0mm 0.0 W/m2
21:42 75.2 °F /  24 °C 25.9 °F /  -3.4 °C 29.76in /  1007.7hPa SSW 2.0mph /  3.2km/h 4.0mph /  6.4km/h 16% 0.00in /  0mm 0.0 W/m2
21:48 75.0 °F /  23.9 °C 25.7 °F /  -3.5 °C 29.77in /  1008hPa SSW 4.9mph /  7.9km/h 11.0mph /  17.7km/h 16% 0.00in /  0mm 0.0 W/m2
21:53 75.0 °F /  23.9 °C 25.7 °F /  -3.5 °C 29.77in /  1008hPa West 4.9mph /  7.9km/h 6.0mph /  9.7km/h 16% 0.00in /  0mm 0.0 W/m2
21:58 74.8 °F /  23.8 °C 25.7 °F /  -3.5 °C 29.77in /  1008hPa SW 2.9mph /  4.7km/h 4.0mph /  6.4km/h 16% 0.00in /  0mm 0.0 W/m2
22:03 74.7 °F /  23.7 °C 25.5 °F /  -3.6 °C 29.77in /  1008hPa SW 2.9mph /  4.7km/h 7.0mph /  11.3km/h 16% 0.00in /  0mm 0.0 W/m2
22:08 74.5 °F /  23.6 °C 25.3 °F /  -3.7 °C 29.77in /  1008hPa WSW 2.9mph /  4.7km/h 8.0mph /  12.9km/h 16% 0.00in /  0mm 0.0 W/m2
22:14 74.3 °F /  23.5 °C 25.2 °F /  -3.8 °C 29.77in /  1008hPa Calm   3.0mph /  4.8km/h 16% 0.00in /  0mm 0.0 W/m2
22:19 74.1 °F /  23.4 °C 26.6 °F /  -3 °C 29.77in /  1008hPa Calm   2.0mph /  3.2km/h 17% 0.00in /  0mm 0.0 W/m2
22:24 73.9 °F /  23.3 °C 26.4 °F /  -3.1 °C 29.78in /  1008.4hPa Calm   2.0mph /  3.2km/h 17% 0.00in /  0mm 0.0 W/m2
22:29 73.8 °F /  23.2 °C 27.7 °F /  -2.4 °C 29.78in /  1008.4hPa Calm     18% 0.00in /  0mm 0.0 W/m2
22:34 73.6 °F /  23.1 °C 27.5 °F /  -2.5 °C 29.78in /  1008.4hPa Calm   1.0mph /  1.6km/h 18% 0.00in /  0mm 0.0 W/m2
22:41 73.0 °F /  22.8 °C 27.0 °F /  -2.8 °C 29.78in /  1008.4hPa Calm   1.0mph /  1.6km/h 18% 0.00in /  0mm 0.0 W/m2
22:46 72.9 °F /  22.7 °C 28.2 °F /  -2.1 °C 29.78in /  1008.4hPa Calm     19% 0.00in /  0mm 0.0 W/m2
22:51 72.5 °F /  22.5 °C 29.1 °F /  -1.6 °C 29.78in /  1008.4hPa Calm   2.0mph /  3.2km/h 20% 0.00in /  0mm 0.0 W/m2
22:56 72.1 °F /  22.3 °C 28.8 °F /  -1.8 °C 29.78in /  1008.4hPa SSE 0.9mph /  1.4km/h 1.0mph /  1.6km/h 20% 0.00in /  0mm 0.0 W/m2
23:02 71.8 °F /  22.1 °C 28.6 °F /  -1.9 °C 29.78in /  1008.4hPa Calm   3.0mph /  4.8km/h 20% 0.00in /  0mm 0.0 W/m2
23:07 71.4 °F /  21.9 °C 28.2 °F /  -2.1 °C 29.78in /  1008.4hPa Calm   1.0mph /  1.6km/h 20% 0.00in /  0mm 0.0 W/m2
23:12 71.2 °F /  21.8 °C 29.3 °F /  -1.5 °C 29.78in /  1008.4hPa Calm     21% 0.00in /  0mm 0.0 W/m2
23:17 71.1 °F /  21.7 °C 29.1 °F /  -1.6 °C 29.78in /  1008.4hPa Calm     21% 0.00in /  0mm 0.0 W/m2
23:22 70.7 °F /  21.5 °C 27.7 °F /  -2.4 °C 29.78in /  1008.4hPa SSE 2.9mph /  4.7km/h 3.0mph /  4.8km/h 20% 0.00in /  0mm 0.0 W/m2
23:27 70.3 °F /  21.3 °C 28.6 °F /  -1.9 °C 29.78in /  1008.4hPa Calm   2.0mph /  3.2km/h 21% 0.00in /  0mm 0.0 W/m2
23:32 70.2 °F /  21.2 °C 28.4 °F /  -2 °C 29.78in /  1008.4hPa Calm   1.0mph /  1.6km/h 21% 0.00in /  0mm 0.0 W/m2
23:37 70.0 °F /  21.1 °C 28.2 °F /  -2.1 °C 29.78in /  1008.4hPa Calm   1.0mph /  1.6km/h 21% 0.00in /  0mm 0.0 W/m2
23:42 69.6 °F /  20.9 °C 27.9 °F /  -2.3 °C 29.77in /  1008hPa Calm   1.0mph /  1.6km/h 21% 0.00in /  0mm 0.0 W/m2
23:48 69.4 °F /  20.8 °C 28.9 °F /  -1.7 °C 29.77in /  1008hPa Calm   2.0mph /  3.2km/h 22% 0.00in /  0mm 0.0 W/m2
23:54 69.3 °F /  20.7 °C 29.8 °F /  -1.2 °C 29.78in /  1008.4hPa Calm   2.0mph /  3.2km/h 23% 0.00in /  0mm 0.0 W/m2
23:59 68.9 °F /  20.5 °C 29.7 °F /  -1.3 °C 29.77in /  1008hPa SE 2.0mph /  3.2km/h 4.0mph /  6.4km/h 23% 0.00in /  0mm 0.0 W/m2
Olympia, Windhoek, Namibia
Compliments of Weather Underground - 3.25 mb